Time;durP1;ratioP1;P1;durP2;ratioP2;P2;SDS_P1;SDS_P2;PMS_P1;PMS_P2;Temp;Humidity;BMP_temperature;BMP_pressure;BME280_temperature;BME280_humidity;BME280_pressure;Samples;Min_cycle;Max_cycle;Signal;HPM_P1;HPM_P2
2023/10/17 00:01:18;;;;;;;20.95;7.95;;;;;;;7.03;100.00;101880.41;5008300;28;20025;-81
2023/10/17 00:03:45;;;;;;;20.70;7.93;;;;;;;7.02;100.00;101878.66;5008179;28;20060;-81
2023/10/17 00:06:13;;;;;;;19.70;7.65;;;;;;;7.00;100.00;101886.75;5007891;28;20133;-81
2023/10/17 00:08:39;;;;;;;21.77;8.20;;;;;;;6.98;100.00;101879.72;5008085;28;20026;-81
2023/10/17 00:11:17;;;;;;;18.17;7.32;;;;;;;7.00;100.00;101878.72;5009400;28;20030;-82
2023/10/17 00:13:59;;;;;;;19.20;7.07;;;;;;;7.02;100.00;101867.09;5009469;28;20033;-81
2023/10/17 00:16:26;;;;;;;19.02;7.15;;;;;;;7.00;100.00;101872.50;5024562;28;20034;-82
2023/10/17 00:18:52;;;;;;;18.45;6.50;;;;;;;6.99;100.00;101871.63;5009477;28;20029;-81
2023/10/17 00:21:25;;;;;;;22.58;7.72;;;;;;;6.98;100.00;101864.56;5026118;28;20064;-80
2023/10/17 00:23:52;;;;;;;17.88;7.55;;;;;;;6.98;100.00;101869.91;5011388;28;20055;-80
2023/10/17 00:26:18;;;;;;;17.42;7.20;;;;;;;6.95;100.00;101869.16;5012308;28;20395;-80
2023/10/17 00:28:49;;;;;;;17.98;6.93;;;;;;;6.94;100.00;101870.97;5011884;28;20026;-80
2023/10/17 00:31:21;;;;;;;20.02;6.88;;;;;;;6.93;100.00;101861.19;5011952;28;20479;-80
2023/10/17 00:33:57;;;;;;;19.05;7.05;;;;;;;6.91;100.00;101851.50;5002979;28;20029;-80
2023/10/17 00:36:23;;;;;;;19.90;7.07;;;;;;;6.93;100.00;101855.00;5010476;28;20056;-80
2023/10/17 00:38:48;;;;;;;19.75;7.22;;;;;;;6.92;100.00;101851.44;5011032;28;20034;-80
2023/10/17 00:41:29;;;;;;;19.80;7.32;;;;;;;6.92;100.00;101848.75;5025752;28;20060;-80
2023/10/17 00:43:54;;;;;;;21.50;7.20;;;;;;;6.95;100.00;101847.78;5011389;28;20124;-80
2023/10/17 00:46:20;;;;;;;20.75;6.63;;;;;;;6.94;100.00;101846.03;5009741;28;20089;-80
2023/10/17 00:48:47;;;;;;;18.42;7.55;;;;;;;6.95;100.00;101853.97;5025774;28;20042;-80
2023/10/17 00:51:17;;;;;;;25.83;7.80;;;;;;;6.95;100.00;101851.31;5010644;28;20021;-80
2023/10/17 00:53:43;;;;;;;21.63;7.28;;;;;;;6.97;100.00;101845.94;5010367;28;20018;-80
2023/10/17 00:56:09;;;;;;;17.70;7.25;;;;;;;6.97;100.00;101854.78;5011215;28;20102;-80
2023/10/17 00:58:34;;;;;;;18.17;6.93;;;;;;;6.96;100.00;101847.72;5011148;28;20057;-80
2023/10/17 01:03:34;;;;;;;23.25;7.65;;;;;;;6.99;100.00;101844.03;5009275;28;20437;-77
2023/10/17 01:08:47;;;;;;;18.20;6.53;;;;;;;6.99;100.00;101850.25;5013535;28;20113;-77
2023/10/17 01:11:20;;;;;;;18.45;6.90;;;;;;;7.00;100.00;101861.81;5011554;28;20061;-76
2023/10/17 01:13:47;;;;;;;22.85;8.35;;;;;;;6.99;100.00;101865.44;5012887;28;20025;-77
2023/10/17 01:16:15;;;;;;;20.13;8.18;;;;;;;6.98;100.00;101863.69;5013272;28;20025;-76
2023/10/17 01:18:44;;;;;;;20.35;7.75;;;;;;;6.99;100.00;101868.94;5011239;28;20037;-77
2023/10/17 01:21:20;;;;;;;21.58;8.30;;;;;;;7.00;100.00;101861.81;5012653;28;20026;-77
2023/10/17 01:23:47;;;;;;;19.02;7.75;;;;;;;7.02;100.00;101851.06;5013023;28;20235;-76
2023/10/17 01:26:26;;;;;;;21.60;7.40;;;;;;;7.00;100.00;101845.78;5011009;28;20046;-77
2023/10/17 01:28:53;;;;;;;18.77;7.32;;;;;;;7.02;100.00;101845.72;5011490;28;20048;-76
2023/10/17 01:31:27;;;;;;;17.73;7.32;;;;;;;7.03;100.00;101836.75;5012021;28;20029;-81
2023/10/17 01:33:55;;;;;;;23.92;7.88;;;;;;;7.05;100.00;101834.91;5010880;28;20029;-81
2023/10/17 01:36:21;;;;;;;20.77;7.82;;;;;;;7.04;100.00;101835.81;5011585;28;20487;-81
2023/10/17 01:38:49;;;;;;;20.98;8.02;;;;;;;7.02;100.00;101843.06;5010588;28;20060;-81
2023/10/17 01:41:21;;;;;;;20.45;7.80;;;;;;;7.01;100.00;101842.16;5010707;28;20479;-81
2023/10/17 01:43:47;;;;;;;19.23;7.70;;;;;;;7.01;100.00;101836.81;5010647;28;20037;-81
2023/10/17 01:46:21;;;;;;;23.08;8.88;;;;;;;7.02;100.00;101830.53;5012307;28;20455;-81
2023/10/17 01:48:48;;;;;;;20.98;7.00;;;;;;;7.02;100.00;101827.88;5011802;28;20458;-82
2023/10/17 01:51:19;;;;;;;18.77;6.82;;;;;;;7.02;100.00;101821.66;5011802;28;20451;-81
2023/10/17 01:53:50;;;;;;;20.83;7.93;;;;;;;7.02;100.00;101821.66;4994206;28;20053;-81
2023/10/17 01:56:15;;;;;;;18.67;8.05;;;;;;;7.02;100.00;101811.84;4994201;28;20022;-81
2023/10/17 01:58:51;;;;;;;24.15;8.10;;;;;;;7.02;100.00;101813.66;5011843;28;20768;-81
2023/10/17 02:01:31;;;;;;;19.83;7.90;;;;;;;7.00;100.00;101806.56;4993892;28;20025;-81
2023/10/17 02:04:12;;;;;;;18.80;7.55;;;;;;;6.99;100.00;101807.47;4993761;28;20124;-82
2023/10/17 02:06:39;;;;;;;17.50;6.80;;;;;;;7.01;100.00;101794.03;5011729;28;20034;-81
2023/10/17 02:11:54;;;;;;;20.95;7.90;;;;;;;6.99;100.00;101798.59;5011886;28;20033;-81
2023/10/17 02:14:20;;;;;;;20.02;8.05;;;;;;;6.98;100.00;101789.72;4993657;28;20120;-81
2023/10/17 02:16:46;;;;;;;19.08;7.38;;;;;;;6.97;100.00;101787.97;5011104;28;20109;-81
2023/10/17 02:19:11;;;;;;;22.95;8.75;;;;;;;6.97;100.00;101779.09;4993495;28;20036;-82
2023/10/17 02:21:39;;;;;;;21.63;8.20;;;;;;;6.98;100.00;101773.69;4993897;28;20103;-80
2023/10/17 02:24:08;;;;;;;20.98;7.78;;;;;;;6.96;100.00;101780.88;5013856;28;20101;-80
2023/10/17 02:26:42;;;;;;;20.38;7.60;;;;;;;6.95;100.00;101773.78;5013278;28;20053;-80
2023/10/17 02:29:11;;;;;;;26.73;8.25;;;;;;;6.95;100.00;101779.16;5013630;28;20057;-80
2023/10/17 02:31:40;;;;;;;24.58;8.27;;;;;;;6.95;100.00;101789.84;5015048;28;20034;-78
2023/10/17 02:34:09;;;;;;;17.90;7.55;;;;;;;6.95;100.00;101789.84;5027305;28;20096;-78
2023/10/17 02:36:35;;;;;;;20.52;7.07;;;;;;;6.94;100.00;101798.81;5008877;28;20042;-78
2023/10/17 02:39:00;;;;;;;20.90;8.20;;;;;;;6.93;100.00;101791.72;5027226;28;20487;-78
2023/10/17 02:41:25;;;;;;;21.92;7.85;;;;;;;6.91;100.00;101790.94;5025764;28;20074;-78
2023/10/17 02:43:54;;;;;;;23.38;8.40;;;;;;;6.89;100.00;101798.13;5026263;28;20354;-78
2023/10/17 02:46:21;;;;;;;19.23;7.40;;;;;;;6.87;100.00;101794.66;5026796;28;20455;-79
2023/10/17 02:48:47;;;;;;;21.90;7.55;;;;;;;6.87;100.00;101793.75;5026014;28;20062;-79
2023/10/17 02:53:51;;;;;;;19.77;7.55;;;;;;;6.83;100.00;101791.22;5026094;28;20184;-79
2023/10/17 02:56:20;;;;;;;;;;;;;;;6.89;100.00;101794.59;5027299;28;20018;-78
2023/10/17 02:58:59;;;;;;;18.25;7.63;;;;;;;6.84;100.00;101789.44;5026278;28;19913;-78
2023/10/17 03:01:27;;;;;;;22.80;8.82;;;;;;;6.82;100.00;101784.16;5019736;28;20099;-79
2023/10/17 03:03:52;;;;;;;21.73;9.38;;;;;;;6.81;100.00;101773.56;4993983;28;20072;-81
2023/10/17 03:06:18;;;;;;;17.58;7.82;;;;;;;6.82;100.00;101778.81;5010366;28;20018;-81
2023/10/17 03:08:49;;;;;;;22.50;8.68;;;;;;;6.82;100.00;101776.16;4993092;28;20033;-82
2023/10/17 03:11:17;;;;;;;19.15;8.10;;;;;;;6.82;100.00;101780.59;5008986;28;20120;-81
2023/10/17 03:13:43;;;;;;;19.02;7.47;;;;;;;6.78;100.00;101774.53;5013088;28;20108;-80
2023/10/17 03:16:25;;;;;;;22.55;8.88;;;;;;;6.78;100.00;101782.56;5013159;28;20050;-80
2023/10/17 03:18:58;;;;;;;20.77;7.97;;;;;;;6.79;100.00;101780.75;5013004;28;20068;-80
2023/10/17 03:21:33;;;;;;;19.63;8.48;;;;;;;6.81;100.00;101786.91;4995855;28;20182;-80
2023/10/17 03:24:00;;;;;;;20.52;8.38;;;;;;;6.78;100.00;101773.69;5005253;28;20030;-79
2023/10/17 03:26:29;;;;;;;20.33;8.93;;;;;;;6.77;100.00;101774.59;5007833;28;20034;-78
2023/10/17 03:28:54;;;;;;;21.45;9.88;;;;;;;6.77;100.00;101777.28;5007270;28;20048;-78
2023/10/17 03:31:20;;;;;;;26.10;8.70;;;;;;;6.80;100.00;101787.84;5024565;28;20022;-79
2023/10/17 03:33:50;;;;;;;19.67;8.27;;;;;;;6.81;100.00;101792.25;5025197;28;20432;-78
2023/10/17 03:36:41;;;;;;;22.90;9.10;;;;;;;6.81;100.00;101794.94;5005282;28;20021;-79
2023/10/17 03:39:27;;;;;;;23.40;9.68;;;;;;;6.84;100.00;101789.44;5020506;28;20103;-79
2023/10/17 03:41:56;;;;;;;22.35;9.25;;;;;;;6.84;100.00;101792.13;5017815;28;20025;-79
2023/10/17 03:44:29;;;;;;;23.20;9.60;;;;;;;6.85;100.00;101788.50;5027243;28;20092;-78
2023/10/17 03:46:55;;;;;;;20.40;8.75;;;;;;;6.83;100.00;101796.56;5009455;28;20145;-78
2023/10/17 03:49:22;;;;;;;22.38;9.68;;;;;;;6.83;100.00;101793.03;5026526;28;20080;-78
2023/10/17 03:51:54;;;;;;;22.25;9.38;;;;;;;6.81;100.00;101789.59;5026461;28;20029;-79
2023/10/17 03:54:22;;;;;;;26.35;9.18;;;;;;;6.80;100.00;101785.16;5009436;28;20052;-79
2023/10/17 03:57:02;;;;;;;22.08;9.13;;;;;;;6.77;100.00;101793.31;5025055;28;20076;-79
2023/10/17 03:59:40;;;;;;;20.00;8.50;;;;;;;6.77;100.00;101794.16;5025740;28;20029;-79
2023/10/17 04:02:18;;;;;;;23.17;10.07;;;;;;;6.74;100.00;101798.78;5007954;28;20120;-80
2023/10/17 04:04:54;;;;;;;20.80;9.13;;;;;;;6.74;100.00;101796.13;5008833;28;20030;-78
2023/10/17 04:07:22;;;;;;;22.60;10.48;;;;;;;6.73;100.00;101794.38;5024912;28;20025;-79
2023/10/17 04:12:38;;;;;;;23.02;10.27;;;;;;;6.71;100.00;101790.91;5016216;28;20040;-77
2023/10/17 04:15:07;;;;;;;23.13;9.80;;;;;;;6.72;100.00;101792.63;4991773;28;20045;-76
2023/10/17 04:17:36;;;;;;;22.67;10.75;;;;;;;6.70;100.00;101789.16;5009667;28;20037;-77
2023/10/17 04:20:17;;;;;;;23.23;10.18;;;;;;;6.69;100.00;101784.72;5009649;28;20080;-76
2023/10/17 04:22:43;;;;;;;22.42;10.45;;;;;;;6.69;100.00;101788.31;4985166;28;20117;-76
2023/10/17 04:27:59;;;;;;;23.08;10.93;;;;;;;6.70;100.00;101800.69;5003608;28;20049;-76
2023/10/17 04:30:29;;;;;;;26.38;11.95;;;;;;;6.70;100.00;101799.84;5007927;28;20021;-77
2023/10/17 04:33:05;;;;;;;23.15;10.77;;;;;;;6.72;100.00;101800.63;5009569;28;20014;-77
2023/10/17 04:35:32;;;;;;;22.88;10.80;;;;;;;6.71;100.00;101799.78;4991618;28;20383;-76
2023/10/17 04:40:50;;;;;;;22.88;11.45;;;;;;;6.72;100.00;101793.50;5007513;28;20048;-77
2023/10/17 04:46:01;;;;;;;22.02;10.35;;;;;;;6.73;100.00;101799.72;5008769;28;20488;-76
2023/10/17 04:48:35;;;;;;;25.20;10.95;;;;;;;6.71;100.00;101804.25;5000079;28;20441;-77
2023/10/17 04:51:13;;;;;;;22.95;10.05;;;;;;;6.70;100.00;101794.50;4998930;28;20026;-77
2023/10/17 04:53:47;;;;;;;23.05;12.13;;;;;;;6.68;100.00;101791.91;5006830;28;20428;-76
2023/10/17 04:56:12;;;;;;;22.23;11.02;;;;;;;6.67;100.00;101790.16;5007145;28;20115;-77
2023/10/17 04:58:48;;;;;;;23.92;11.57;;;;;;;6.68;100.00;101783.88;5006494;28;20450;-78
2023/10/17 05:01:46;;;;;;;23.92;11.05;;;;;;;6.69;100.00;101787.41;5009209;28;20053;-76
2023/10/17 05:04:18;;;;;;;24.55;10.90;;;;;;;6.69;100.00;101790.97;4999935;28;20189;-76
2023/10/17 06:17:59;;;;;;;25.88;13.35;;;;;;;6.75;100.00;101765.78;4962532;28;20046;-80
2023/10/17 06:23:23;;;;;;;30.83;13.95;;;;;;;6.74;100.00;101769.41;4963086;28;20161;-80
2023/10/17 06:28:27;;;;;;;28.70;14.30;;;;;;;6.77;100.00;101774.59;4963888;28;20039;-79
2023/10/17 06:33:37;;;;;;;27.08;13.93;;;;;;;6.79;100.00;101778.06;4962887;28;20134;-80
2023/10/17 06:36:25;;;;;;;28.80;14.32;;;;;;;6.80;100.00;101769.13;4963578;28;20035;-80
2023/10/17 06:38:51;;;;;;;25.55;14.63;;;;;;;6.81;100.00;101771.72;4965130;28;20042;-80
2023/10/17 06:41:27;;;;;;;23.48;14.48;;;;;;;6.83;100.00;101777.88;5011730;28;20084;-80
2023/10/17 06:43:58;;;;;;;28.90;14.77;;;;;;;6.84;100.00;101784.09;5013917;28;20542;-80
2023/10/17 06:46:31;;;;;;;27.10;15.27;;;;;;;6.86;100.00;101784.88;5016954;28;20423;-80
2023/10/17 06:49:05;;;;;;;28.50;15.07;;;;;;;6.86;100.00;101790.25;5015665;28;20137;-80
2023/10/17 06:51:33;;;;;;;26.17;14.35;;;;;;;6.89;100.00;101794.59;5014741;28;20036;-80
2023/10/17 06:54:06;;;;;;;29.70;16.58;;;;;;;6.90;100.00;101796.34;5013737;28;20100;-80
2023/10/17 06:56:38;;;;;;;28.58;15.98;;;;;;;6.92;100.00;101791.78;4997026;28;20033;-80
2023/10/17 06:59:04;;;;;;;28.05;16.20;;;;;;;6.92;100.00;101784.63;4997883;28;20076;-80
2023/10/17 07:01:33;;;;;;;27.60;14.52;;;;;;;6.95;100.00;101800.53;5016393;28;20096;-80
2023/10/17 07:04:01;;;;;;;27.63;15.20;;;;;;;6.95;100.00;101803.19;5006180;28;20113;-77
2023/10/17 07:06:28;;;;;;;28.55;15.65;;;;;;;6.98;100.00;101797.75;5010888;28;20044;-76
2023/10/17 07:08:54;;;;;;;29.42;15.60;;;;;;;7.00;100.00;101792.34;4993001;28;20103;-76
2023/10/17 07:13:54;;;;;;;28.58;16.63;;;;;;;7.05;100.00;101787.63;5011252;28;20038;-79
2023/10/17 07:16:32;;;;;;;28.23;16.48;;;;;;;7.04;100.00;101782.38;5015502;28;20022;-80
2023/10/17 07:19:09;;;;;;;28.38;15.48;;;;;;;7.07;100.00;101779.56;4996400;28;20117;-80
2023/10/17 07:21:56;;;;;;;29.02;14.95;;;;;;;7.09;100.00;101777.69;4997766;28;20554;-80
2023/10/17 07:24:23;;;;;;;26.70;13.98;;;;;;;7.12;100.00;101775.75;5001252;28;20058;-80
2023/10/17 07:26:52;;;;;;;26.85;14.25;;;;;;;7.13;100.00;101772.16;4990963;28;20442;-80
2023/10/17 07:29:21;;;;;;;27.77;14.80;;;;;;;7.16;100.00;101772.00;5012882;28;20363;-80
2023/10/17 07:31:51;;;;;;;29.15;14.80;;;;;;;7.20;100.00;101783.41;4996790;28;20029;-80
2023/10/17 07:34:17;;;;;;;27.10;13.93;;;;;;;7.21;100.00;101784.31;4995118;28;20029;-80
2023/10/17 07:36:44;;;;;;;26.10;13.68;;;;;;;7.19;100.00;101781.72;5014322;28;20033;-80
2023/10/17 07:39:22;;;;;;;29.38;14.52;;;;;;;7.24;100.00;101793.06;5013792;28;20030;-80
2023/10/17 07:41:53;;;;;;;25.20;12.48;;;;;;;7.26;100.00;101788.53;5016320;28;20434;-80
2023/10/17 07:44:29;;;;;;;27.25;14.88;;;;;;;7.29;100.00;101787.50;5013094;28;20141;-80
2023/10/17 07:49:35;;;;;;;24.48;13.85;;;;;;;7.28;100.00;101783.97;5012919;28;20361;-80
2023/10/17 07:52:07;;;;;;;28.30;14.10;;;;;;;7.30;100.00;101784.75;4994906;28;20033;-80
2023/10/17 07:54:38;;;;;;;28.92;14.18;;;;;;;7.31;100.00;101786.50;4995571;28;20704;-80
2023/10/17 07:57:05;;;;;;;27.33;14.15;;;;;;;7.30;100.00;101790.09;4995425;28;20152;-80
2023/10/17 07:59:31;;;;;;;26.25;13.13;;;;;;;7.30;100.00;101799.94;4996352;28;20049;-80
2023/10/17 08:02:00;;;;;;;25.10;12.82;;;;;;;7.28;100.00;101786.63;5012108;28;20538;-80
2023/10/17 08:04:30;;;;;;;26.00;13.40;;;;;;;7.25;100.00;101775.22;5012838;28;20113;-80
2023/10/17 08:06:56;;;;;;;;;;;;;;;7.27;100.00;101774.19;5013710;28;20033;-80
2023/10/17 08:11:54;;;;;;;25.48;12.50;;;;;;;7.20;100.00;101772.72;5012340;28;20038;-80
2023/10/17 08:14:26;;;;;;;30.77;12.75;;;;;;;7.24;100.00;101771.66;5002577;28;20041;-79
2023/10/17 08:16:55;;;;;;;27.50;14.10;;;;;;;7.30;100.00;101779.41;4995003;28;20411;-79
2023/10/17 08:19:23;;;;;;;24.65;12.93;;;;;;;7.37;100.00;101773.81;5011807;28;20045;-79
2023/10/17 08:24:34;;;;;;;26.75;12.68;;;;;;;7.49;100.00;101768.75;5006617;28;20065;-78
2023/10/17 08:27:40;;;;;;;29.90;12.85;;;;;;;7.52;100.00;101765.94;5012933;28;20124;-79
2023/10/17 08:30:14;;;;;;;24.52;12.07;;;;;;;7.60;100.00;101768.28;5011991;28;20056;-80
2023/10/17 08:32:54;;;;;;;25.92;12.68;;;;;;;7.64;100.00;101763.63;4993330;28;20135;-79
2023/10/17 08:35:20;;;;;;;;;;;;;;;7.72;100.00;101765.94;4993216;28;20042;-80
2023/10/17 08:37:46;;;;;;;24.95;12.23;;;;;;;7.76;100.00;101767.53;4993832;28;19960;-80
2023/10/17 08:40:29;;;;;;;26.38;12.70;;;;;;;7.79;100.00;101764.72;5010906;28;20201;-79
2023/10/17 08:43:16;;;;;;;23.92;11.25;;;;;;;7.84;100.00;101763.56;4993023;28;20163;-79
2023/10/17 08:45:46;;;;;;;24.45;11.35;;;;;;;7.90;100.00;101762.41;5004516;28;20044;-79
2023/10/17 08:48:12;;;;;;;24.88;10.50;;;;;;;7.95;100.00;101768.44;5002226;28;20050;-79
2023/10/17 08:50:38;;;;;;;22.95;10.25;;;;;;;8.01;100.00;101765.44;5012240;28;20080;-79
2023/10/17 08:53:08;;;;;;;23.52;11.02;;;;;;;8.07;100.00;101769.66;5009328;28;20029;-79
2023/10/17 08:55:34;;;;;;;23.63;11.27;;;;;;;8.12;100.00;101772.09;5008926;28;20030;-79
2023/10/17 08:57:59;;;;;;;23.25;10.43;;;;;;;8.17;100.00;101768.25;5009469;28;20022;-79
2023/10/17 09:03:10;;;;;;;23.08;8.82;;;;;;;8.30;100.00;101773.00;5005602;28;20040;-79
2023/10/17 09:05:58;;;;;;;20.08;8.38;;;;;;;8.37;100.00;101782.47;5010609;28;20531;-79
2023/10/17 09:08:42;;;;;;;20.77;7.22;;;;;;;8.42;100.00;101774.22;5012860;28;20539;-79
2023/10/17 09:11:08;;;;;;;21.98;8.45;;;;;;;8.47;100.00;101765.03;5001900;28;20025;-78
2023/10/17 09:16:13;;;;;;;19.77;8.63;;;;;;;8.56;100.00;101761.94;5005863;28;20120;-78
2023/10/17 09:18:47;;;;;;;18.98;8.27;;;;;;;8.61;100.00;101772.41;5010018;28;20442;-78
2023/10/17 09:21:14;;;;;;;21.55;8.25;;;;;;;8.63;100.00;101765.16;5001829;28;20372;-80
2023/10/17 09:23:41;;;;;;;22.88;8.57;;;;;;;8.68;100.00;101764.91;5025436;28;20026;-79
2023/10/17 09:26:09;;;;;;;19.15;8.00;;;;;;;8.71;100.00;101771.00;5009604;28;20029;-79
2023/10/17 09:28:39;;;;;;;20.23;7.57;;;;;;;8.77;100.00;101768.94;5012603;28;20032;-78
2023/10/17 09:31:09;;;;;;;19.38;8.02;;;;;;;8.81;100.00;101768.69;5013840;28;20096;-78
2023/10/17 09:33:37;;;;;;;21.23;7.70;;;;;;;8.86;100.00;101763.13;5013057;28;20064;-79
2023/10/17 09:36:04;;;;;;;20.25;7.63;;;;;;;8.93;100.00;101761.81;5019034;28;20033;-77
2023/10/17 09:38:34;;;;;;;18.80;7.10;;;;;;;8.99;100.00;101774.06;5033315;28;20033;-78
2023/10/17 09:41:01;;;;;;;21.05;8.07;;;;;;;9.04;100.00;101762.16;5025582;28;20030;-77
2023/10/17 09:43:27;;;;;;;19.05;7.38;;;;;;;9.10;100.00;101769.00;5025037;28;20033;-77
2023/10/17 09:45:55;;;;;;;18.35;7.00;;;;;;;9.16;100.00;101773.19;5039577;28;20026;-77
2023/10/17 09:48:33;;;;;;;21.45;7.60;;;;;;;9.22;100.00;101770.16;5024590;28;20084;-77
2023/10/17 09:51:01;;;;;;;19.25;7.55;;;;;;;9.27;100.00;101762.78;5005854;28;20022;-77
2023/10/17 09:53:31;;;;;;;17.95;7.40;;;;;;;9.33;100.00;101761.56;5023459;28;20022;-77
2023/10/17 09:56:01;;;;;;;18.90;7.40;;;;;;;9.37;98.41;101755.97;5023679;28;20036;-78
2023/10/17 09:58:33;;;;;;;18.50;6.90;;;;;;;9.41;99.71;101762.91;5006426;28;20058;-77
2023/10/17 10:01:06;;;;;;;21.63;7.07;;;;;;;9.45;98.38;101768.94;5016309;28;20072;-78
2023/10/17 10:03:35;;;;;;;19.92;6.05;;;;;;;9.50;95.65;101774.91;5006261;28;20030;-77
2023/10/17 10:06:22;;;;;;;17.38;5.97;;;;;;;9.56;97.48;101768.34;4998665;28;20116;-77
2023/10/17 10:08:48;;;;;;;18.65;6.45;;;;;;;9.58;94.73;101778.06;5023354;28;20040;-77
2023/10/17 10:11:15;;;;;;;17.13;6.50;;;;;;;9.60;94.08;101778.00;5023185;28;20430;-77
2023/10/17 10:14:03;;;;;;;21.15;6.85;;;;;;;9.66;94.79;101779.47;5024454;28;20053;-77
2023/10/17 10:16:51;;;;;;;17.30;6.13;;;;;;;9.70;95.34;101771.16;5018293;28;20089;-77
2023/10/17 10:19:17;;;;;;;19.77;6.57;;;;;;;9.74;94.32;101761.13;4998723;28;20459;-77
2023/10/17 10:22:03;;;;;;;17.42;6.13;;;;;;;9.79;92.73;101765.31;5023142;28;20025;-77
2023/10/17 10:24:33;;;;;;;20.70;6.28;;;;;;;9.83;91.74;101765.13;5017530;28;20048;-76
2023/10/17 10:27:23;;;;;;;16.70;5.75;;;;;;;9.90;91.12;101761.16;5006491;28;20057;-77
2023/10/17 10:29:54;;;;;;;18.00;5.50;;;;;;;9.93;85.74;101755.63;5010211;28;20479;-77
2023/10/17 10:32:25;;;;;;;18.60;5.95;;;;;;;10.00;88.40;101750.75;5025237;28;20061;-76
2023/10/17 10:34:51;;;;;;;16.58;5.40;;;;;;;10.04;89.08;101744.25;5025473;28;20034;-77
2023/10/17 10:37:17;;;;;;;15.93;5.75;;;;;;;10.07;88.56;101746.75;5023587;28;20366;-77
2023/10/17 10:40:12;;;;;;;17.83;5.72;;;;;;;10.11;89.71;101738.44;5006494;28;20026;-76
2023/10/17 10:42:59;;;;;;;16.27;5.28;;;;;;;10.15;89.34;101731.94;5015753;28;20069;-77
2023/10/17 10:46:10;;;;;;;14.05;5.00;;;;;;;10.19;87.48;101738.03;5010632;28;20025;-81
2023/10/17 10:48:28;;;;;;;13.93;5.25;;;;;;;10.24;84.65;101738.59;5006655;28;20187;-80
2023/10/17 10:50:55;;;;;;;19.40;5.35;;;;;;;10.28;82.66;101734.78;5010893;28;20466;-80
2023/10/17 10:53:36;;;;;;;17.85;5.40;;;;;;;10.31;83.87;101729.25;4993110;28;20056;-80
2023/10/17 10:56:13;;;;;;;12.88;4.50;;;;;;;10.35;84.18;101729.94;4992999;28;20427;-80
2023/10/17 10:58:47;;;;;;;17.58;6.10;;;;;;;10.38;83.42;101724.41;5010908;28;20472;-79
2023/10/17 11:01:13;;;;;;;17.02;5.28;;;;;;;10.43;85.02;101716.94;4992908;28;20034;-80
2023/10/17 11:03:40;;;;;;;18.67;5.82;;;;;;;10.48;83.15;101713.97;5010290;28;20319;-80
2023/10/17 11:06:08;;;;;;;15.23;5.13;;;;;;;10.53;85.18;101711.88;5010731;28;20188;-81
2023/10/17 11:08:43;;;;;;;13.80;5.13;;;;;;;10.57;82.85;101708.06;5009245;28;20037;-80
2023/10/17 11:11:14;;;;;;;17.80;5.25;;;;;;;10.60;81.45;101707.00;5003218;28;20037;-83
2023/10/17 11:13:43;;;;;;;15.27;5.03;;;;;;;10.62;81.77;101707.78;4992533;28;20022;-78
2023/10/17 11:16:08;;;;;;;13.00;4.50;;;;;;;10.66;81.13;101699.44;4992703;28;20021;-80
2023/10/17 11:18:39;;;;;;;12.45;4.55;;;;;;;10.72;82.84;101711.66;4992570;28;20562;-82
2023/10/17 11:21:05;;;;;;;12.55;4.35;;;;;;;10.75;79.28;101706.09;4992523;28;20103;-80
2023/10/17 11:23:33;;;;;;;16.73;5.20;;;;;;;10.78;77.77;101694.28;5010272;28;20029;-81
2023/10/17 11:26:00;;;;;;;14.73;4.82;;;;;;;10.80;77.85;101693.22;5010149;28;20041;-80
2023/10/17 11:28:27;;;;;;;12.95;4.20;;;;;;;10.84;77.86;101681.31;4992439;28;20103;-81
2023/10/17 11:30:53;;;;;;;16.40;4.40;;;;;;;10.91;76.77;101673.75;4992446;28;20033;-80
2023/10/17 11:33:28;;;;;;;9.80;3.72;;;;;;;10.95;75.50;101674.41;5010202;28;20494;-80
2023/10/17 11:35:54;;;;;;;11.85;3.60;;;;;;;10.99;76.95;101676.81;5010112;28;20096;-81
2023/10/17 11:38:35;;;;;;;9.75;3.83;;;;;;;11.04;77.64;101672.97;4992071;28;20523;-81
2023/10/17 11:41:07;;;;;;;14.43;4.45;;;;;;;11.07;75.27;101662.91;5009908;28;20487;-81
2023/10/17 11:43:51;;;;;;;14.93;4.40;;;;;;;11.10;72.89;101657.34;5009946;28;20100;-83
2023/10/17 11:46:35;;;;;;;11.40;4.10;;;;;;;11.16;77.27;101665.03;5009822;28;20096;-80
2023/10/17 11:49:21;;;;;;;10.43;3.92;;;;;;;11.18;72.34;101656.84;5005849;28;20411;-83
2023/10/17 11:52:09;;;;;;;12.13;4.07;;;;;;;11.17;71.17;101657.81;5001752;28;20040;-80
2023/10/17 11:54:55;;;;;;;10.13;3.93;;;;;;;11.17;73.61;101658.69;5009775;28;20124;-81
2023/10/17 11:57:25;;;;;;;10.52;3.90;;;;;;;11.18;73.77;101665.78;5010257;28;20753;-75
2023/10/17 11:59:59;;;;;;;;;;;;;;;11.21;75.91;101670.09;5002610;28;20164;-76
2023/10/17 12:02:29;;;;;;;11.55;3.80;;;;;;;11.22;70.44;101676.38;5024871;28;19917;-75
2023/10/17 12:04:55;;;;;;;12.07;3.80;;;;;;;11.27;73.84;101671.53;5000373;28;20049;-77
2023/10/17 12:07:21;;;;;;;11.77;4.57;;;;;;;11.32;75.28;101677.53;5010019;28;20030;-76
2023/10/17 12:09:46;;;;;;;13.88;4.30;;;;;;;11.32;74.28;101667.59;5009708;28;20030;-76
2023/10/17 12:12:12;;;;;;;15.35;4.43;;;;;;;11.36;75.44;101666.47;5008374;28;20029;-77
2023/10/17 12:14:37;;;;;;;10.10;3.47;;;;;;;11.36;70.41;101650.31;5008479;28;20112;-75
2023/10/17 12:17:03;;;;;;;10.02;3.90;;;;;;;11.39;72.19;101635.81;5008499;28;20026;-75
2023/10/17 12:19:29;;;;;;;12.63;4.35;;;;;;;11.44;75.51;101636.34;5009778;28;20021;-76
2023/10/17 12:21:55;;;;;;;12.15;4.40;;;;;;;11.46;76.16;101630.88;5024723;28;20030;-75
2023/10/17 12:24:45;;;;;;;13.45;4.75;;;;;;;11.45;75.27;101632.72;5008315;28;20057;-75
2023/10/17 12:27:12;;;;;;;13.23;4.68;;;;;;;11.46;75.00;101629.03;5009332;28;20037;-76
2023/10/17 12:29:37;;;;;;;;;;;;;;;11.50;78.60;101611.72;5008865;28;20083;-76
2023/10/17 12:32:04;;;;;;;15.13;5.07;;;;;;;11.51;78.26;101618.00;5009786;28;19920;-75
2023/10/17 12:34:30;;;;;;;16.77;4.70;;;;;;;11.53;77.85;101611.53;5008300;28;20026;-76
2023/10/17 12:36:55;;;;;;;14.40;4.70;;;;;;;11.56;80.30;101588.94;5007962;28;20032;-76
2023/10/17 12:39:21;;;;;;;13.55;4.85;;;;;;;11.61;78.29;101594.00;5009384;28;20029;-76
2023/10/17 12:41:48;;;;;;;14.68;5.13;;;;;;;11.65;80.15;101584.75;5008235;28;20117;-76
2023/10/17 12:44:20;;;;;;;14.70;4.85;;;;;;;11.66;76.80;101573.88;5007753;28;20088;-76
2023/10/17 12:46:46;;;;;;;15.02;5.55;;;;;;;11.69;77.69;101570.13;5009445;28;20109;-76
2023/10/17 12:49:12;;;;;;;14.13;4.75;;;;;;;11.70;77.02;101561.09;5007748;28;20092;-76
2023/10/17 12:51:38;;;;;;;17.60;5.15;;;;;;;11.72;78.28;101556.47;5008065;28;20069;-76
2023/10/17 12:54:04;;;;;;;12.93;4.68;;;;;;;11.72;78.26;101559.16;5008121;28;20025;-76
2023/10/17 12:56:29;;;;;;;17.40;5.20;;;;;;;11.73;74.98;101560.91;5008564;28;20105;-76
2023/10/17 12:58:55;;;;;;;14.40;4.63;;;;;;;11.76;76.73;101551.72;5006703;28;20600;-76
2023/10/17 13:01:24;;;;;;;14.27;5.00;;;;;;;11.80;78.42;101547.84;5009125;28;20038;-76
2023/10/17 13:03:53;;;;;;;16.75;4.50;;;;;;;11.84;77.16;101544.84;5013342;28;20843;-75
2023/10/17 13:06:20;;;;;;;15.52;4.95;;;;;;;11.86;75.26;101547.47;5012025;28;20032;-79
2023/10/17 13:08:46;;;;;;;16.15;4.97;;;;;;;11.85;73.24;101556.50;5013206;28;20379;-79
2023/10/17 13:11:12;;;;;;;14.13;4.93;;;;;;;11.85;77.18;101551.97;5028116;28;20030;-79
2023/10/17 13:13:39;;;;;;;14.90;4.45;;;;;;;11.83;73.29;101544.97;5013027;28;20072;-78
2023/10/17 13:16:05;;;;;;;14.15;4.75;;;;;;;11.81;73.20;101549.59;5028037;28;20042;-79
2023/10/17 13:18:33;;;;;;;16.95;5.43;;;;;;;11.80;75.39;101542.47;5013244;28;20105;-80
2023/10/17 13:21:04;;;;;;;14.80;4.78;;;;;;;11.81;74.71;101539.69;5012670;28;20100;-80
2023/10/17 13:23:31;;;;;;;14.60;4.57;;;;;;;11.80;77.38;101547.84;5028293;28;20018;-78
2023/10/17 13:25:58;;;;;;;12.90;4.40;;;;;;;11.78;74.59;101539.88;5012685;28;20192;-79
2023/10/17 13:28:23;;;;;;;13.85;4.97;;;;;;;11.79;76.47;101540.78;5011682;28;20064;-79
2023/10/17 13:30:49;;;;;;;16.08;5.75;;;;;;;11.80;75.23;101542.47;5027706;28;20479;-79